GLO1758 SBRB-SBCZ
Flight info
| Callsign | GLO1758 |
|---|---|
| Flight time | N/A |
| Altitude | 32000 |
| Route | AERON DCT DADKI DCT CZS |
| Aircraft | B738/M-SDFGIKLORWXY/LB1 |
Departure
| Time | 2026-04-19 13:46 |
|---|---|
| Airport | Rio Branco-Plácido de Castro International Airport (SBRB) |
Arrival
| Time | N/A |
|---|---|
| Airport | Cruzeiro do Sul Airport (SBCZ) |
| Time | Latitude | Longitude | Altitude | Speed | Heading |
|---|---|---|---|---|---|
| 2026-04-19 13:27 | -9.86711 | -67.89676 | 625 ft | 0 kts | 327° |
| 2026-04-19 13:38 | -9.86717 | -67.89672 | 633 ft | 4 kts | 326° |
| 2026-04-19 13:39 | -9.86739 | -67.89657 | 625 ft | 4 kts | 322° |
| 2026-04-19 13:39 | -9.86758 | -67.89641 | 632 ft | 2 kts | 320° |
| 2026-04-19 13:39 | -9.86759 | -67.89640 | 632 ft | 3 kts | 320° |
| 2026-04-19 13:42 | -9.86756 | -67.89651 | 625 ft | 3 kts | 274° |
| 2026-04-19 13:42 | -9.86765 | -67.89672 | 625 ft | 3 kts | 237° |
| 2026-04-19 13:42 | -9.86779 | -67.89694 | 631 ft | 5 kts | 237° |
| 2026-04-19 13:42 | -9.86802 | -67.89729 | 625 ft | 7 kts | 237° |
| 2026-04-19 13:43 | -9.86840 | -67.89775 | 625 ft | 10 kts | 214° |
| 2026-04-19 13:43 | -9.86911 | -67.89795 | 626 ft | 11 kts | 192° |
| 2026-04-19 13:43 | -9.86986 | -67.89811 | 632 ft | 11 kts | 192° |
| 2026-04-19 13:43 | -9.87066 | -67.89829 | 629 ft | 13 kts | 192° |
| 2026-04-19 13:44 | -9.87164 | -67.89851 | 627 ft | 16 kts | 192° |
| 2026-04-19 13:44 | -9.87243 | -67.89925 | 636 ft | 16 kts | 237° |
| 2026-04-19 13:44 | -9.87303 | -67.90020 | 631 ft | 16 kts | 237° |
| 2026-04-19 13:44 | -9.87360 | -67.90110 | 638 ft | 15 kts | 237° |
| 2026-04-19 13:45 | -9.87431 | -67.90166 | 636 ft | 7 kts | 202° |
| 2026-04-19 13:45 | -9.87434 | -67.90205 | 639 ft | 5 kts | 314° |
| 2026-04-19 13:45 | -9.87409 | -67.90189 | 636 ft | 6 kts | 68° |
| 2026-04-19 13:45 | -9.87382 | -67.90146 | 634 ft | 11 kts | 57° |
| 2026-04-19 13:46 | -9.87233 | -67.89913 | 627 ft | 76 kts | 57° |
| 2026-04-19 13:46 | -9.86827 | -67.89274 | 624 ft | 139 kts | 57° |
| 2026-04-19 13:46 | -9.86231 | -67.88315 | 828 ft | 170 kts | 57° |
| 2026-04-19 13:46 | -9.85599 | -67.87283 | 1437 ft | 180 kts | 54° |
| 2026-04-19 13:47 | -9.84893 | -67.86207 | 2128 ft | 184 kts | 53° |
| 2026-04-19 13:47 | -9.84165 | -67.85088 | 2722 ft | 203 kts | 53° |
| 2026-04-19 13:47 | -9.83288 | -67.83845 | 2938 ft | 229 kts | 41° |